createdAt,value
2023-08-07T00:00:27.851Z,101629.78
2023-08-07T00:02:55.698Z,101626.44
2023-08-07T00:05:23.788Z,101631.13
2023-08-07T00:07:51.563Z,101629.00
2023-08-07T00:10:19.859Z,101637.34
2023-08-07T00:12:48.100Z,101628.47
2023-08-07T00:15:15.929Z,101623.44
2023-08-07T00:17:43.916Z,101626.69
2023-08-07T00:20:12.136Z,101625.22
2023-08-07T00:22:40.000Z,101629.31
2023-08-07T00:25:09.010Z,101629.59
2023-08-07T00:27:36.897Z,101630.16
2023-08-07T00:30:05.230Z,101621.41
2023-08-07T00:32:33.217Z,101622.88
2023-08-07T00:35:01.707Z,101619.44
2023-08-07T00:37:29.909Z,101611.78
2023-08-07T00:39:57.852Z,101625.09
2023-08-07T00:42:25.662Z,101617.53
2023-08-07T00:44:54.456Z,101613.72
2023-08-07T00:47:22.478Z,101621.88
2023-08-07T00:49:51.621Z,101615.00
2023-08-07T00:52:20.741Z,101620.47
2023-08-07T00:54:48.737Z,101611.69
2023-08-07T00:57:18.670Z,101611.94
2023-08-07T00:59:46.744Z,101618.50
2023-08-07T01:02:15.243Z,101620.31
2023-08-07T01:04:43.680Z,101604.94
2023-08-07T01:07:11.632Z,101612.31
2023-08-07T01:09:39.739Z,101613.31
2023-08-07T01:12:30.088Z,101608.31
2023-08-07T01:15:15.796Z,101594.38
2023-08-07T01:17:45.941Z,101603.53
2023-08-07T01:20:14.740Z,101593.66
2023-08-07T01:22:42.578Z,101601.59
2023-08-07T01:25:10.459Z,101603.53
2023-08-07T01:28:47.488Z,101582.72
2023-08-07T01:31:20.593Z,101574.19
2023-08-07T01:34:06.140Z,101582.88
2023-08-07T01:36:36.198Z,101589.94
2023-08-07T01:39:08.029Z,101600.91
2023-08-07T01:41:39.169Z,101593.75
2023-08-07T01:44:07.594Z,101597.88
2023-08-07T01:46:35.391Z,101598.63
2023-08-07T01:49:04.222Z,101595.00
2023-08-07T01:51:32.223Z,101592.81
2023-08-07T01:54:00.125Z,101591.84
2023-08-07T01:56:28.117Z,101577.81
2023-08-07T01:58:56.050Z,101587.66
2023-08-07T02:01:24.119Z,101581.53
2023-08-07T02:03:52.076Z,101575.63
2023-08-07T02:06:20.226Z,101576.03
2023-08-07T02:08:48.131Z,101576.75
2023-08-07T02:11:17.079Z,101578.56
2023-08-07T02:13:44.965Z,101574.09
2023-08-07T02:16:15.817Z,101572.22
2023-08-07T02:18:47.002Z,101565.78
2023-08-07T02:21:19.630Z,101567.25
2023-08-07T02:23:50.161Z,101562.47
2023-08-07T02:26:18.818Z,101568.00
2023-08-07T02:28:47.698Z,101569.28
2023-08-07T02:31:15.712Z,101568.53
2023-08-07T02:33:43.846Z,101560.38
2023-08-07T02:36:11.690Z,101556.06
2023-08-07T02:38:39.702Z,101562.56
2023-08-07T02:41:07.478Z,101567.25
2023-08-07T02:43:36.975Z,101558.13
2023-08-07T02:46:06.792Z,101572.16
2023-08-07T02:48:34.693Z,101569.03
2023-08-07T02:51:02.467Z,101572.31
2023-08-07T02:53:30.276Z,101565.50
2023-08-07T02:55:58.167Z,101569.44
2023-08-07T02:58:26.003Z,101560.91
2023-08-07T03:00:54.066Z,101562.31
2023-08-07T03:03:21.852Z,101550.28
2023-08-07T03:05:52.345Z,101564.50
2023-08-07T03:08:20.358Z,101562.19
2023-08-07T03:10:58.187Z,101561.50
2023-08-07T03:13:27.990Z,101562.47
2023-08-07T03:16:08.864Z,101557.34
2023-08-07T03:18:37.343Z,101554.03
2023-08-07T03:21:05.493Z,101561.66
2023-08-07T03:23:33.710Z,101554.16
2023-08-07T03:26:19.035Z,101542.78
2023-08-07T03:28:50.221Z,101544.91
2023-08-07T03:31:18.979Z,101553.72
2023-08-07T03:33:48.092Z,101544.78
2023-08-07T03:36:18.005Z,101551.53
2023-08-07T03:38:46.101Z,101542.25
2023-08-07T03:41:14.001Z,101531.47
2023-08-07T03:43:43.464Z,101524.22
2023-08-07T03:46:13.143Z,101532.00
2023-08-07T03:48:41.129Z,101531.16
2023-08-07T03:51:10.246Z,101530.19
2023-08-07T03:53:45.826Z,101520.75
2023-08-07T03:56:13.708Z,101533.16
2023-08-07T03:58:43.133Z,101530.94
2023-08-07T04:01:12.383Z,101524.66
2023-08-07T04:03:41.951Z,101522.31
2023-08-07T04:06:11.926Z,101525.03
2023-08-07T04:08:39.687Z,101513.72
2023-08-07T04:11:09.731Z,101511.66
2023-08-07T04:13:37.863Z,101510.38
2023-08-07T04:16:07.361Z,101518.63
2023-08-07T04:18:35.808Z,101507.75
2023-08-07T04:21:04.460Z,101514.84
2023-08-07T04:23:33.509Z,101511.41
2023-08-07T04:26:02.165Z,101510.25
2023-08-07T04:28:33.129Z,101508.91
2023-08-07T04:31:01.020Z,101521.25
2023-08-07T04:33:30.566Z,101516.69
2023-08-07T04:35:58.660Z,101525.88
2023-08-07T04:38:27.065Z,101517.66
2023-08-07T04:40:55.209Z,101524.84
2023-08-07T04:43:23.141Z,101519.75
2023-08-07T04:45:51.294Z,101517.28
2023-08-07T04:48:19.573Z,101519.47
2023-08-07T04:50:47.412Z,101514.09
2023-08-07T04:53:15.731Z,101513.94
2023-08-07T04:55:43.696Z,101519.31
2023-08-07T04:58:11.505Z,101516.91
2023-08-07T05:00:39.244Z,101519.13
2023-08-07T05:03:07.175Z,101515.59
2023-08-07T05:05:35.156Z,101520.59
2023-08-07T05:08:03.065Z,101522.53
2023-08-07T05:10:31.291Z,101524.75
2023-08-07T05:12:59.205Z,101523.34
2023-08-07T05:15:29.846Z,101524.34
2023-08-07T05:17:58.042Z,101512.78
2023-08-07T05:20:26.011Z,101508.50
2023-08-07T05:22:53.948Z,101517.41
2023-08-07T05:25:22.358Z,101526.16
2023-08-07T05:27:50.455Z,101536.72
2023-08-07T05:30:18.888Z,101535.69
2023-08-07T05:32:47.078Z,101530.94
2023-08-07T05:35:15.628Z,101531.50
2023-08-07T05:37:43.616Z,101535.97
2023-08-07T05:40:13.303Z,101526.09
2023-08-07T05:42:42.934Z,101532.75
2023-08-07T05:45:12.362Z,101534.84
2023-08-07T05:47:40.558Z,101534.47
2023-08-07T05:50:09.869Z,101532.53
2023-08-07T05:52:37.667Z,101545.97
2023-08-07T05:55:09.330Z,101553.06
2023-08-07T05:57:37.172Z,101552.59
2023-08-07T06:00:07.116Z,101547.34
2023-08-07T06:02:41.596Z,101548.41
2023-08-07T06:05:10.800Z,101554.00
2023-08-07T06:07:38.633Z,101563.00
2023-08-07T06:10:08.090Z,101561.72
2023-08-07T06:12:36.645Z,101567.00
2023-08-07T06:15:05.359Z,101572.78
2023-08-07T06:17:33.306Z,101574.47
2023-08-07T06:20:01.003Z,101578.66
2023-08-07T06:22:28.738Z,101568.53
2023-08-07T06:24:56.445Z,101571.91
2023-08-07T06:27:24.431Z,101577.19
2023-08-07T06:29:52.321Z,101580.06
2023-08-07T06:32:20.105Z,101582.41
2023-08-07T06:34:48.080Z,101582.25
2023-08-07T06:37:15.765Z,101583.94
2023-08-07T06:39:43.701Z,101584.88
2023-08-07T06:42:11.609Z,101597.63
2023-08-07T06:44:39.512Z,101598.28
2023-08-07T06:47:09.923Z,101601.56
2023-08-07T06:49:38.846Z,101608.09
2023-08-07T06:52:07.821Z,101608.41
2023-08-07T06:54:35.892Z,101613.59
2023-08-07T06:57:04.173Z,101619.59
2023-08-07T06:59:31.863Z,101624.72
2023-08-07T07:01:59.966Z,101632.09
2023-08-07T07:04:29.260Z,101623.19
2023-08-07T07:06:57.107Z,101621.00
2023-08-07T07:09:24.952Z,101623.72
2023-08-07T07:11:52.761Z,101631.47
2023-08-07T07:14:20.699Z,101636.41
2023-08-07T07:16:50.305Z,101642.38
2023-08-07T07:19:18.378Z,101636.63
2023-08-07T07:21:48.722Z,101644.56
2023-08-07T07:24:16.643Z,101653.00
2023-08-07T07:26:44.644Z,101657.56
2023-08-07T07:29:12.588Z,101666.75
2023-08-07T07:31:40.735Z,101656.44
2023-08-07T07:34:11.293Z,101665.72
2023-08-07T07:36:39.260Z,101672.38
2023-08-07T07:39:08.235Z,101673.19
2023-08-07T07:41:36.331Z,101682.78
2023-08-07T07:44:04.270Z,101689.75
2023-08-07T07:46:33.685Z,101690.13
2023-08-07T07:49:04.322Z,101678.25
2023-08-07T07:51:33.854Z,101679.66
2023-08-07T07:56:36.288Z,101696.16
2023-08-07T07:59:04.501Z,101700.31
2023-08-07T08:01:32.325Z,101705.75
2023-08-07T08:04:00.207Z,101709.47
2023-08-07T08:06:28.617Z,101726.00
2023-08-07T08:08:56.495Z,101735.16
2023-08-07T08:11:25.852Z,101751.63
2023-08-07T08:13:53.770Z,101753.66
2023-08-07T08:16:22.450Z,101756.31
2023-08-07T08:18:50.516Z,101767.78
2023-08-07T08:21:18.247Z,101779.06
2023-08-07T08:23:46.207Z,101784.59
2023-08-07T08:26:14.003Z,101800.66
2023-08-07T08:28:42.248Z,101800.81
2023-08-07T08:31:10.862Z,101818.97
2023-08-07T08:33:41.536Z,101819.97
2023-08-07T08:36:09.398Z,101825.50
2023-08-07T08:38:38.799Z,101836.94
2023-08-07T08:41:11.108Z,101839.22
2023-08-07T08:43:46.914Z,101849.22
2023-08-07T08:46:21.557Z,101854.75
2023-08-07T08:49:00.339Z,101864.38
2023-08-07T08:51:28.884Z,101881.00
2023-08-07T08:53:58.168Z,101899.50
2023-08-07T08:56:27.112Z,101908.59
2023-08-07T08:58:55.409Z,101927.34
2023-08-07T09:01:26.586Z,101966.13
2023-08-07T09:03:58.530Z,102004.53
2023-08-07T09:06:33.874Z,102041.50
2023-08-07T09:09:03.950Z,102082.72
2023-08-07T09:11:34.630Z,102135.19
2023-08-07T09:14:04.935Z,102178.66
2023-08-07T09:16:34.919Z,102236.88
2023-08-07T09:19:05.458Z,102286.44
2023-08-07T09:21:35.047Z,102331.72
2023-08-07T09:24:02.940Z,102372.91
2023-08-07T09:26:37.063Z,102390.25
2023-08-07T09:29:05.663Z,102386.19
2023-08-07T09:31:34.276Z,102379.00
2023-08-07T09:34:06.538Z,102344.78
2023-08-07T09:36:36.123Z,102307.28
2023-08-07T09:39:05.988Z,102265.66
2023-08-07T09:41:35.633Z,102207.44
2023-08-07T09:44:12.326Z,102113.63
2023-08-07T09:46:46.002Z,102070.69
2023-08-07T09:49:15.088Z,102069.25
2023-08-07T09:51:48.575Z,102116.69
2023-08-07T09:54:16.935Z,102148.22
2023-08-07T09:56:48.839Z,102196.97
2023-08-07T09:59:17.886Z,102229.41
2023-08-07T10:01:47.206Z,102255.72
2023-08-07T10:04:17.228Z,102272.56
2023-08-07T10:06:48.182Z,102286.91
2023-08-07T10:09:16.399Z,102315.09
2023-08-07T10:11:45.217Z,102336.97
2023-08-07T10:14:16.057Z,102344.56
2023-08-07T10:16:46.810Z,102319.53
2023-08-07T10:19:15.103Z,102308.56
2023-08-07T10:21:46.427Z,102280.91
2023-08-07T10:24:19.224Z,102256.75
2023-08-07T10:26:52.262Z,102253.41
2023-08-07T10:29:25.138Z,102262.78
2023-08-07T10:31:57.358Z,102210.28
2023-08-07T10:34:25.588Z,102143.63
2023-08-07T10:36:53.521Z,102100.28
2023-08-07T10:39:22.470Z,102089.31
2023-08-07T10:41:56.447Z,102030.31
2023-08-07T10:44:32.349Z,101949.66
2023-08-07T10:47:02.630Z,101842.69
2023-08-07T10:49:37.689Z,101708.78
2023-08-07T10:52:16.689Z,101560.63
2023-08-07T10:54:51.472Z,101384.38
2023-08-07T10:57:20.798Z,101243.69
2023-08-07T10:59:57.819Z,101216.72
2023-08-07T11:02:34.477Z,101245.81
2023-08-07T11:05:03.485Z,101224.50
2023-08-07T11:07:33.029Z,101177.41
2023-08-07T11:10:02.024Z,101157.56
2023-08-07T11:12:31.121Z,101019.25
2023-08-07T11:14:59.306Z,100898.59
2023-08-07T11:17:31.354Z,100559.44
2023-08-07T11:20:00.715Z,100352.44
2023-08-07T11:22:28.762Z,100160.50
2023-08-07T11:24:56.965Z,100185.44
2023-08-07T11:27:28.513Z,100014.03
2023-08-07T11:29:57.475Z,99847.09
2023-08-07T11:32:25.507Z,99644.06
2023-08-07T11:34:53.546Z,99490.06
2023-08-07T11:37:21.767Z,99214.13
2023-08-07T11:39:50.316Z,99116.63
2023-08-07T11:42:24.089Z,99066.19
2023-08-07T11:44:52.382Z,98696.94
2023-08-07T11:47:21.349Z,98666.53
2023-08-07T11:49:49.798Z,98448.38
2023-08-07T11:52:18.336Z,98211.84
2023-08-07T11:54:50.404Z,98266.13
2023-08-07T11:57:27.581Z,98326.09
2023-08-07T11:59:55.829Z,98374.34
2023-08-07T12:02:27.306Z,98528.03
2023-08-07T12:05:00.719Z,98444.91
2023-08-07T12:07:33.652Z,98423.81
2023-08-07T12:10:10.869Z,98433.63
2023-08-07T12:12:40.044Z,98483.34
2023-08-07T12:15:12.406Z,98424.81
2023-08-07T12:17:41.197Z,98361.38
2023-08-07T12:20:12.944Z,98430.28
2023-08-07T12:22:40.845Z,98402.31
2023-08-07T12:25:09.739Z,98358.66
2023-08-07T12:27:39.321Z,98425.06
2023-08-07T12:30:08.916Z,98509.09
2023-08-07T12:32:36.921Z,98368.22
2023-08-07T12:37:40.906Z,98409.59
2023-08-07T12:42:41.413Z,98623.09
2023-08-07T12:45:10.450Z,98638.09
2023-08-07T12:47:38.909Z,98535.16
2023-08-07T12:50:07.883Z,98572.41
2023-08-07T12:52:36.730Z,98428.66
2023-08-07T12:55:07.005Z,98353.28
2023-08-07T12:57:34.929Z,98249.34
2023-08-07T13:00:03.331Z,98267.75
2023-08-07T13:02:31.660Z,98256.03
2023-08-07T13:04:59.665Z,98259.50
2023-08-07T13:07:27.726Z,98214.81
2023-08-07T13:09:56.805Z,98222.75
2023-08-07T13:12:25.156Z,98220.41
2023-08-07T13:14:53.044Z,98223.63
2023-08-07T13:17:20.828Z,98261.59
2023-08-07T13:19:49.099Z,98249.69
2023-08-07T13:22:17.669Z,98262.91
2023-08-07T13:24:46.545Z,98227.75
2023-08-07T13:27:16.314Z,98234.72
2023-08-07T13:29:50.039Z,98274.13
2023-08-07T13:32:22.522Z,98371.47
2023-08-07T13:34:53.880Z,98371.78
2023-08-07T13:37:25.815Z,98249.13
2023-08-07T13:39:55.585Z,98236.34
2023-08-07T13:42:28.748Z,98253.13
2023-08-07T13:44:57.694Z,98279.94
2023-08-07T13:47:27.237Z,98274.66
2023-08-07T13:49:55.998Z,98271.97
2023-08-07T13:52:23.860Z,98287.97
2023-08-07T13:54:52.540Z,98300.97
2023-08-07T13:57:20.588Z,98290.88
2023-08-07T13:59:49.136Z,98303.09
2023-08-07T14:02:17.156Z,98310.28
2023-08-07T14:04:46.993Z,98332.66
2023-08-07T14:07:14.934Z,98278.00
2023-08-07T14:09:44.290Z,98254.84
2023-08-07T14:12:12.320Z,98255.13
2023-08-07T14:14:40.441Z,98230.06
2023-08-07T14:17:08.625Z,98231.38
2023-08-07T14:19:36.586Z,98243.88
2023-08-07T14:22:05.189Z,98243.63
2023-08-07T14:24:33.571Z,98276.16
2023-08-07T14:27:01.600Z,98267.66
2023-08-07T14:29:29.677Z,98274.53
2023-08-07T14:31:57.630Z,98263.63
2023-08-07T14:34:25.798Z,98371.31
2023-08-07T14:36:55.555Z,98441.97
2023-08-07T14:39:24.621Z,98384.50
2023-08-07T14:41:53.588Z,98405.03
2023-08-07T14:44:21.522Z,98304.56
2023-08-07T14:46:50.814Z,98360.38
2023-08-07T14:49:24.002Z,98278.63
2023-08-07T14:51:53.464Z,98400.00
2023-08-07T14:54:21.204Z,98384.38
2023-08-07T14:56:49.285Z,98498.22
2023-08-07T14:59:17.247Z,98600.47
2023-08-07T15:01:45.180Z,98689.91
2023-08-07T15:04:13.299Z,99095.94
2023-08-07T15:06:48.302Z,99200.19
2023-08-07T15:09:18.266Z,98652.00
2023-08-07T15:11:47.614Z,98568.47
2023-08-07T15:14:15.688Z,98477.72
2023-08-07T15:16:43.828Z,98426.88
2023-08-07T15:19:12.398Z,98344.13
2023-08-07T15:21:40.337Z,98530.69
2023-08-07T15:24:08.505Z,98692.00
2023-08-07T15:26:36.401Z,98881.88
2023-08-07T15:29:05.723Z,99100.50
2023-08-07T15:31:34.153Z,99189.41
2023-08-07T15:34:02.284Z,99271.28
2023-08-07T15:36:30.289Z,98956.34
2023-08-07T15:38:58.727Z,98706.53
2023-08-07T15:41:26.636Z,98746.56
2023-08-07T15:43:54.733Z,98800.13
2023-08-07T15:46:22.529Z,98803.22
2023-08-07T15:48:51.721Z,98748.34
2023-08-07T15:51:20.925Z,98995.47
2023-08-07T15:53:48.699Z,99391.00
2023-08-07T15:56:16.596Z,99443.84
2023-08-07T15:58:44.448Z,99368.97
2023-08-07T16:01:12.422Z,99359.34
2023-08-07T16:03:40.551Z,99212.66
2023-08-07T16:06:10.248Z,99504.16
2023-08-07T16:08:38.798Z,99996.97
2023-08-07T16:11:08.004Z,100042.72
2023-08-07T16:13:36.084Z,100158.88
2023-08-07T16:16:04.328Z,100184.56
2023-08-07T16:18:32.315Z,99890.28
2023-08-07T16:21:00.144Z,99652.94
2023-08-07T16:23:28.555Z,99616.72
2023-08-07T16:25:56.497Z,99160.44
2023-08-07T16:28:24.693Z,98832.69
2023-08-07T16:30:52.568Z,98723.47
2023-08-07T16:33:20.912Z,98582.28
2023-08-07T16:35:48.790Z,98515.56
2023-08-07T16:38:16.672Z,98446.50
2023-08-07T16:40:44.414Z,98465.78
2023-08-07T16:43:13.167Z,98458.75
2023-08-07T16:45:41.515Z,98430.25
2023-08-07T16:48:09.591Z,98435.81
2023-08-07T16:50:39.491Z,98405.91
2023-08-07T16:53:10.236Z,98383.91
2023-08-07T16:55:38.300Z,98387.88
2023-08-07T16:58:09.696Z,98368.31
2023-08-07T17:00:48.787Z,98325.56
2023-08-07T17:03:21.102Z,98351.94
2023-08-07T17:06:03.733Z,98280.47
2023-08-07T17:08:36.186Z,98292.66
2023-08-07T17:11:05.958Z,98328.13
2023-08-07T17:13:33.704Z,98359.69
2023-08-07T17:16:01.552Z,98368.09
2023-08-07T17:18:32.408Z,98368.09
2023-08-07T17:21:01.624Z,98381.50
2023-08-07T17:23:29.494Z,98338.94
2023-08-07T17:26:02.869Z,98385.31
2023-08-07T17:28:32.604Z,98370.66
2023-08-07T17:31:03.518Z,98374.28
2023-08-07T17:33:32.088Z,98334.19
2023-08-07T17:36:00.374Z,98334.88
2023-08-07T17:38:28.799Z,98354.47
2023-08-07T17:40:56.517Z,98354.06
2023-08-07T17:43:24.498Z,98327.38
2023-08-07T17:45:52.408Z,98315.56
2023-08-07T17:48:20.353Z,98313.81
2023-08-07T17:50:49.521Z,98328.59
2023-08-07T17:53:17.776Z,98350.69
2023-08-07T17:55:45.606Z,98361.88
2023-08-07T17:58:14.059Z,98377.94
2023-08-07T18:00:45.089Z,98399.16
2023-08-07T18:03:13.151Z,98398.88
2023-08-07T18:05:41.046Z,98418.69
2023-08-07T18:08:09.129Z,98452.53
2023-08-07T18:10:37.405Z,98485.00
2023-08-07T18:13:05.871Z,98499.75
2023-08-07T18:15:33.871Z,98574.84
2023-08-07T18:18:01.592Z,98584.75
2023-08-07T18:20:29.601Z,98557.50
2023-08-07T18:22:57.610Z,98625.97
2023-08-07T18:25:25.827Z,98665.03
2023-08-07T18:27:53.939Z,98673.59
2023-08-07T18:30:21.710Z,98683.06
2023-08-07T18:32:50.613Z,98763.66
2023-08-07T18:35:19.696Z,98799.72
2023-08-07T18:37:47.470Z,98832.66
2023-08-07T18:40:15.797Z,98891.44
2023-08-07T18:42:44.338Z,98929.31
2023-08-07T18:45:12.438Z,98965.88
2023-08-07T18:47:40.706Z,98987.81
2023-08-07T18:50:09.884Z,99056.28
2023-08-07T18:52:37.837Z,99067.50
2023-08-07T18:55:06.612Z,99113.81
2023-08-07T18:57:34.539Z,99148.06
2023-08-07T19:00:02.427Z,99195.72
2023-08-07T19:02:30.488Z,99230.34
2023-08-07T19:04:58.432Z,99171.25
2023-08-07T19:07:26.160Z,99158.41
2023-08-07T19:09:54.202Z,99133.94
2023-08-07T19:12:22.178Z,99116.03
2023-08-07T19:14:50.177Z,99159.66
2023-08-07T19:17:18.351Z,99254.97
2023-08-07T19:19:46.369Z,99316.91
2023-08-07T19:22:14.685Z,99369.66
2023-08-07T19:24:42.546Z,99418.69
2023-08-07T19:27:10.498Z,99448.81
2023-08-07T19:29:38.176Z,99497.84
2023-08-07T19:32:06.852Z,99520.22
2023-08-07T19:34:35.867Z,99550.31
2023-08-07T19:37:04.809Z,99579.00
2023-08-07T19:39:32.693Z,99601.16
2023-08-07T19:42:00.501Z,99663.16
2023-08-07T19:44:28.322Z,99740.38
2023-08-07T19:46:56.470Z,99811.69
2023-08-07T19:49:24.541Z,99893.41
2023-08-07T19:51:52.284Z,99882.25
2023-08-07T19:54:20.444Z,99885.91
2023-08-07T19:56:48.724Z,99934.84
2023-08-07T19:59:16.506Z,99951.31
2023-08-07T20:01:44.427Z,100005.13
2023-08-07T20:04:14.786Z,100056.50
2023-08-07T20:06:43.147Z,100113.06
2023-08-07T20:09:11.101Z,100173.03
2023-08-07T20:11:39.380Z,100240.06
2023-08-07T20:14:07.571Z,100266.28
2023-08-07T20:16:36.035Z,100289.84
2023-08-07T20:19:04.116Z,100329.03
2023-08-07T20:21:32.280Z,100348.63
2023-08-07T20:24:00.239Z,100352.66
2023-08-07T20:26:28.334Z,100380.25
2023-08-07T20:28:58.657Z,100401.25
2023-08-07T20:31:26.820Z,100438.25
2023-08-07T20:33:59.484Z,100480.78
2023-08-07T20:36:30.866Z,100506.03
2023-08-07T20:38:58.928Z,100514.31
2023-08-07T20:41:27.125Z,100538.34
2023-08-07T20:43:55.166Z,100583.69
2023-08-07T20:46:23.852Z,100586.44
2023-08-07T20:48:53.528Z,100537.47
2023-08-07T20:51:21.961Z,100505.31
2023-08-07T20:53:49.919Z,100517.41
2023-08-07T20:56:19.343Z,100536.75
2023-08-07T20:58:47.259Z,100536.75
2023-08-07T21:01:15.261Z,100543.16
2023-08-07T21:03:43.170Z,100518.44
2023-08-07T21:06:11.032Z,100516.34
2023-08-07T21:08:38.925Z,100500.88
2023-08-07T21:11:07.349Z,100506.31
2023-08-07T21:13:39.233Z,100509.41
2023-08-07T21:16:07.399Z,100551.25
2023-08-07T21:18:35.420Z,100620.78
2023-08-07T21:21:03.303Z,100675.56
2023-08-07T21:23:32.451Z,100752.69
2023-08-07T21:26:01.329Z,100794.38
2023-08-07T21:28:29.071Z,100802.66
2023-08-07T21:30:57.133Z,100838.28
2023-08-07T21:33:25.158Z,100869.19
2023-08-07T21:35:53.296Z,100900.88
2023-08-07T21:38:21.364Z,100935.66
2023-08-07T21:40:49.183Z,100961.44
2023-08-07T21:43:17.075Z,100981.22
2023-08-07T21:45:45.657Z,100988.00
2023-08-07T21:48:13.494Z,100980.91
2023-08-07T21:50:41.325Z,100987.69
2023-08-07T21:53:09.115Z,100992.97
2023-08-07T21:55:36.967Z,101033.69
2023-08-07T21:58:05.420Z,101105.16
2023-08-07T22:00:33.234Z,101171.16
2023-08-07T22:03:01.293Z,101222.97
2023-08-07T22:05:29.158Z,101247.25
2023-08-07T22:07:57.216Z,101268.59
2023-08-07T22:10:25.161Z,101285.78
2023-08-07T22:12:52.971Z,101298.66
2023-08-07T22:15:20.762Z,101311.72
2023-08-07T22:17:49.077Z,101337.50
2023-08-07T22:20:18.572Z,101341.63
2023-08-07T22:22:46.335Z,101352.59
2023-08-07T22:25:14.316Z,101343.47
2023-08-07T22:27:42.511Z,101333.47
2023-08-07T22:30:11.564Z,101318.97
2023-08-07T22:32:39.437Z,101307.38
2023-08-07T22:35:08.868Z,101294.00
2023-08-07T22:37:36.815Z,101276.16
2023-08-07T22:40:06.255Z,101245.28
2023-08-07T22:42:33.996Z,101237.38
2023-08-07T22:45:01.980Z,101201.91
2023-08-07T22:47:29.949Z,101160.09
2023-08-07T22:50:01.283Z,101158.59
2023-08-07T22:52:30.423Z,101077.16
2023-08-07T22:54:58.177Z,100995.41
2023-08-07T22:57:26.441Z,100939.56
2023-08-07T22:59:54.255Z,100871.50
2023-08-07T23:02:22.413Z,100825.06
2023-08-07T23:04:50.355Z,100766.19
2023-08-07T23:07:18.317Z,100691.63
2023-08-07T23:09:46.222Z,100610.78
2023-08-07T23:12:15.377Z,100516.69
2023-08-07T23:14:44.536Z,100433.19
2023-08-07T23:17:12.507Z,100350.44
2023-08-07T23:19:40.394Z,100247.75
2023-08-07T23:22:08.205Z,100181.81
2023-08-07T23:24:36.095Z,100143.72
2023-08-07T23:27:05.024Z,100146.94
2023-08-07T23:29:33.197Z,100159.94
2023-08-07T23:32:01.408Z,100167.31
2023-08-07T23:34:29.467Z,100160.81
2023-08-07T23:36:57.527Z,100163.06
2023-08-07T23:39:25.235Z,100171.53
2023-08-07T23:41:53.513Z,100189.88
2023-08-07T23:44:21.340Z,100206.72
2023-08-07T23:46:49.364Z,100226.22
2023-08-07T23:49:17.429Z,100238.91
2023-08-07T23:51:45.333Z,100236.84
2023-08-07T23:54:13.497Z,100220.66
2023-08-07T23:56:41.490Z,100193.19
2023-08-07T23:59:09.347Z,100158.81
